Time;durP1;ratioP1;P1;durP2;ratioP2;P2;SDS_P1;SDS_P2;PMS_P1;PMS_P2;Temp;Humidity;BMP_temperature;BMP_pressure;BME280_temperature;BME280_humidity;BME280_pressure;Samples;Min_cycle;Max_cycle;Signal;HPM_P1;HPM_P2
2023/01/10 04:29:01;;;;;;;0.10;0.10;;;9.10;40.80;;;;;;6071563;22;2068010;-76
2023/01/10 04:31:28;;;;;;;0.10;0.10;;;9.00;41.10;;;;;;6121325;23;20430;-76
2023/01/10 04:33:55;;;;;;;0.10;0.10;;;9.00;41.70;;;;;;6123097;23;20483;-76
2023/01/10 04:36:22;;;;;;;0.20;0.20;;;8.90;41.10;;;;;;6122681;23;20442;-76
2023/01/10 04:38:49;;;;;;;0.10;0.10;;;9.00;40.40;;;;;;6121605;23;20438;-76
2023/01/10 04:41:16;;;;;;;0.10;0.10;;;9.10;40.00;;;;;;6122657;23;20752;-76
2023/01/10 04:43:43;;;;;;;0.10;0.10;;;9.10;39.90;;;;;;6123108;23;20376;-75
2023/01/10 04:46:10;;;;;;;0.10;0.10;;;9.10;39.90;;;;;;6122176;23;20391;-77
2023/01/10 04:48:37;;;;;;;0.10;0.10;;;9.10;40.30;;;;;;6151157;23;20374;-76
2023/01/10 04:51:04;;;;;;;0.10;0.10;;;9.10;40.10;;;;;;6152913;23;20449;-76
2023/01/10 04:53:31;;;;;;;0.20;0.20;;;9.00;40.30;;;;;;6151683;23;20378;-76
2023/01/10 04:56:02;;;;;;;0.20;0.20;;;9.00;39.80;;;;;;6152930;23;20398;-78
2023/01/10 04:58:35;;;;;;;0.10;0.10;;;9.00;39.80;;;;;;6151658;23;20390;-78
2023/01/10 05:01:10;;;;;;;0.10;0.10;;;9.00;39.50;;;;;;6151316;23;20441;-78
2023/01/10 05:03:37;;;;;;;0.15;0.15;;;9.10;38.50;;;;;;6152108;23;20386;-78
2023/01/10 05:06:05;;;;;;;0.20;0.20;;;9.20;37.90;;;;;;6150799;23;20398;-78
2023/01/10 05:08:32;;;;;;;0.10;0.10;;;9.20;37.90;;;;;;6150048;23;20849;-78
2023/01/10 05:10:59;;;;;;;0.10;0.10;;;9.20;37.50;;;;;;6152573;23;20394;-76
2023/01/10 05:13:26;;;;;;;0.20;0.20;;;9.40;37.40;;;;;;6150037;23;20429;-76
2023/01/10 05:15:57;;;;;;;0.10;0.10;;;9.40;37.00;;;;;;6151139;23;20461;-79
2023/01/10 05:18:28;;;;;;;0.20;0.20;;;9.50;36.40;;;;;;6149878;23;20770;-78
2023/01/10 05:21:09;;;;;;;0.10;0.10;;;9.50;37.00;;;;;;6151281;23;20378;-76
2023/01/10 05:23:38;;;;;;;0.20;0.20;;;9.40;37.20;;;;;;6150033;23;20429;-79
2023/01/10 05:26:14;;;;;;;0.20;0.13;;;9.30;36.90;;;;;;6150807;23;20429;-76
2023/01/10 05:28:41;;;;;;;0.10;0.10;;;9.50;36.30;;;;;;6150418;23;20362;-78
2023/01/10 05:31:12;;;;;;;0.10;0.10;;;9.50;36.80;;;;;;6151297;23;20374;-75
2023/01/10 05:33:44;;;;;;;0.20;0.20;;;9.50;36.80;;;;;;6150300;23;20362;-78
2023/01/10 05:36:11;;;;;;;0.20;0.20;;;9.50;36.50;;;;;;6152219;23;20420;-79
2023/01/10 05:38:38;;;;;;;0.13;0.13;;;9.50;36.20;;;;;;6150276;23;20401;-78
2023/01/10 05:41:04;;;;;;;0.20;0.20;;;9.40;36.60;;;;;;6150403;23;20567;-78
2023/01/10 05:43:31;;;;;;;1.30;0.20;;;9.40;36.30;;;;;;6151588;23;20770;-76
2023/01/10 05:45:58;;;;;;;0.10;0.10;;;9.50;35.60;;;;;;6150478;23;20370;-78
2023/01/10 05:48:25;;;;;;;0.20;0.20;;;9.60;35.60;;;;;;6151342;23;20378;-78
2023/01/10 05:50:53;;;;;;;0.10;0.10;;;9.60;35.10;;;;;;6150752;23;20409;-78
2023/01/10 05:53:20;;;;;;;0.20;0.20;;;9.60;35.50;;;;;;6149093;23;20449;-78
2023/01/10 05:55:54;;;;;;;0.10;0.10;;;9.60;35.80;;;;;;6151029;23;20378;-79
2023/01/10 05:58:21;;;;;;;0.10;0.10;;;9.50;35.90;;;;;;6149619;23;20405;-79
2023/01/10 06:00:48;;;;;;;0.10;0.10;;;9.50;35.60;;;;;;6150709;23;20378;-78
2023/01/10 06:03:14;;;;;;;0.10;0.10;;;9.60;35.20;;;;;;6151834;23;20586;-76
2023/01/10 06:05:42;;;;;;;0.15;0.15;;;9.60;34.90;;;;;;6151433;23;20425;-76
2023/01/10 06:08:08;;;;;;;0.20;0.20;;;9.60;35.10;;;;;;6151576;23;20382;-76
2023/01/10 06:10:35;;;;;;;0.20;0.20;;;9.60;34.40;;;;;;6149703;23;20702;-76
2023/01/10 06:13:04;;;;;;;0.10;0.10;;;9.60;34.10;;;;;;6150108;23;20711;-76
2023/01/10 06:15:32;;;;;;;0.20;0.10;;;9.70;34.30;;;;;;6149858;23;20924;-76
2023/01/10 06:17:59;;;;;;;0.10;0.10;;;9.70;34.60;;;;;;6150115;23;20405;-76
2023/01/10 06:20:26;;;;;;;0.10;0.10;;;9.60;35.10;;;;;;6149477;23;20377;-76
2023/01/10 06:22:53;;;;;;;0.10;0.10;;;9.60;34.20;;;;;;6150393;23;20378;-76
2023/01/10 06:25:20;;;;;;;0.20;0.20;;;9.70;34.50;;;;;;6150390;23;20707;-76
2023/01/10 06:27:47;;;;;;;0.20;0.20;;;9.60;34.60;;;;;;6149296;23;20372;-78
2023/01/10 06:30:14;;;;;;;0.10;0.10;;;9.70;33.60;;;;;;6149214;23;20378;-78
2023/01/10 06:32:41;;;;;;;0.10;0.10;;;9.70;33.90;;;;;;6150419;23;20381;-75
2023/01/10 06:35:08;;;;;;;0.10;0.10;;;9.60;34.50;;;;;;6151950;23;20374;-75
2023/01/10 06:37:35;;;;;;;0.40;0.20;;;9.50;34.40;;;;;;6149660;23;20398;-75
2023/01/10 06:40:03;;;;;;;0.20;0.20;;;9.60;33.70;;;;;;6151486;23;20454;-75
2023/01/10 06:42:31;;;;;;;0.20;0.20;;;9.60;34.00;;;;;;6149646;23;20853;-75
2023/01/10 06:44:57;;;;;;;0.43;0.20;;;9.60;33.70;;;;;;6149838;23;20378;-75
2023/01/10 06:47:24;;;;;;;1.00;0.20;;;9.50;34.40;;;;;;6148777;23;20393;-76
2023/01/10 06:49:51;;;;;;;0.22;0.13;;;9.40;34.00;;;;;;6149822;23;20775;-75
2023/01/10 06:52:18;;;;;;;0.10;0.10;;;9.50;33.90;;;;;;6151594;23;20777;-76
2023/01/10 06:54:45;;;;;;;0.10;0.10;;;9.60;33.70;;;;;;6144174;23;20750;-76
2023/01/10 06:57:12;;;;;;;0.10;0.10;;;9.60;33.90;;;;;;6143202;23;20428;-78
2023/01/10 06:59:39;;;;;;;0.20;0.20;;;9.60;33.70;;;;;;6150077;23;20846;-78
2023/01/10 07:02:08;;;;;;;0.10;0.10;;;9.50;34.00;;;;;;6151670;23;20410;-78
2023/01/10 07:04:35;;;;;;;0.43;0.10;;;9.50;33.60;;;;;;6149145;23;20752;-78
2023/01/10 07:07:02;;;;;;;0.30;0.20;;;9.70;32.80;;;;;;6150335;23;20371;-78
2023/01/10 07:09:29;;;;;;;0.28;0.20;;;9.80;33.20;;;;;;6149209;23;20374;-76
2023/01/10 07:11:56;;;;;;;0.40;0.22;;;9.70;32.80;;;;;;6151754;23;20469;-75
2023/01/10 07:14:23;;;;;;;0.10;0.10;;;9.90;32.40;;;;;;6151994;23;20377;-76
2023/01/10 07:16:50;;;;;;;0.90;0.20;;;9.90;32.60;;;;;;6148933;23;20373;-78
2023/01/10 07:19:18;;;;;;;0.17;0.17;;;9.80;32.90;;;;;;6149847;23;20750;-79
2023/01/10 07:21:45;;;;;;;0.10;0.10;;;9.80;32.80;;;;;;6146556;23;20381;-78
2023/01/10 07:24:12;;;;;;;0.15;0.15;;;9.80;32.50;;;;;;6148295;23;20381;-79
2023/01/10 07:26:39;;;;;;;0.30;0.15;;;9.80;33.10;;;;;;6149389;23;20382;-79
2023/01/10 07:29:07;;;;;;;2.50;0.20;;;9.90;31.80;;;;;;6149036;23;20412;-76
2023/01/10 07:31:34;;;;;;;0.20;0.20;;;9.90;32.30;;;;;;6150876;23;20400;-76
2023/01/10 07:34:00;;;;;;;0.10;0.10;;;10.00;31.90;;;;;;6149678;23;20394;-79
2023/01/10 07:36:27;;;;;;;0.35;0.30;;;9.90;32.10;;;;;;6149807;23;20750;-76
2023/01/10 07:38:54;;;;;;;0.20;0.20;;;9.90;32.50;;;;;;6152522;23;20369;-76
2023/01/10 07:41:21;;;;;;;0.20;0.20;;;9.90;32.70;;;;;;6151712;23;20706;-75
2023/01/10 07:43:48;;;;;;;0.15;0.15;;;10.00;31.70;;;;;;6150949;23;20374;-78
2023/01/10 07:46:15;;;;;;;0.20;0.20;;;10.10;31.40;;;;;;6152409;23;20370;-79
2023/01/10 07:48:43;;;;;;;0.60;0.10;;;10.10;32.50;;;;;;6150458;23;20377;-78
2023/01/10 07:51:10;;;;;;;0.20;0.20;;;10.10;32.10;;;;;;6151157;23;20734;-78
2023/01/10 07:53:38;;;;;;;0.30;0.10;;;10.30;31.30;;;;;;6150351;23;20394;-78
2023/01/10 07:56:05;;;;;;;0.25;0.20;;;10.50;30.50;;;;;;6151730;23;20362;-79
2023/01/10 07:58:32;;;;;;;0.30;0.10;;;11.40;29.40;;;;;;6150809;23;20382;-75
2023/01/10 08:01:00;;;;;;;0.32;0.10;;;12.10;29.00;;;;;;6151720;23;20694;-76
2023/01/10 08:03:28;;;;;;;0.35;0.20;;;12.50;28.20;;;;;;6151701;23;20707;-77
2023/01/10 08:05:59;;;;;;;0.70;0.10;;;12.40;27.70;;;;;;6151165;23;20382;-77
2023/01/10 08:08:27;;;;;;;0.30;0.10;;;12.30;28.30;;;;;;6153050;23;20748;-77
2023/01/10 08:10:54;;;;;;;0.10;0.10;;;11.90;28.50;;;;;;6150710;23;20366;-76
2023/01/10 08:13:21;;;;;;;0.10;0.10;;;11.80;28.50;;;;;;6151542;23;20373;-77
2023/01/10 08:15:50;;;;;;;0.52;0.10;;;11.80;28.80;;;;;;6150822;23;20370;-76
2023/01/10 08:18:19;;;;;;;0.10;0.10;;;11.70;28.80;;;;;;6151618;23;20378;-76
2023/01/10 08:20:48;;;;;;;0.10;0.10;;;11.70;29.30;;;;;;6150803;23;20691;-77
2023/01/10 08:23:16;;;;;;;0.10;0.10;;;11.80;29.10;;;;;;6153311;23;20374;-76
2023/01/10 08:25:43;;;;;;;0.15;0.10;;;11.90;28.00;;;;;;6150622;23;20366;-77
2023/01/10 08:28:10;;;;;;;0.10;0.10;;;11.90;28.40;;;;;;6151725;23;20898;-76
2023/01/10 08:30:37;;;;;;;0.40;0.13;;;11.90;28.20;;;;;;6150396;23;20409;-77
2023/01/10 08:33:06;;;;;;;0.65;0.10;;;12.00;28.60;;;;;;6151339;23;20428;-76
2023/01/10 08:35:41;;;;;;;0.60;0.10;;;12.10;28.20;;;;;;6150539;23;20424;-78
2023/01/10 08:38:10;;;;;;;0.30;0.20;;;12.00;28.70;;;;;;6151801;23;20834;-76
2023/01/10 08:40:37;;;;;;;0.20;0.20;;;12.10;27.50;;;;;;6149941;23;20424;-77
2023/01/10 08:43:10;;;;;;;0.50;0.13;;;12.30;27.20;;;;;;6152835;23;20398;-77
2023/01/10 08:45:38;;;;;;;0.30;0.10;;;12.40;27.20;;;;;;6150139;23;20391;-76
2023/01/10 08:48:08;;;;;;;0.10;0.10;;;12.40;27.20;;;;;;6153037;23;20939;-77
2023/01/10 08:50:35;;;;;;;0.10;0.10;;;12.40;27.60;;;;;;6150101;23;20731;-77
2023/01/10 08:53:02;;;;;;;0.10;0.10;;;12.40;27.20;;;;;;6151119;23;20393;-76
2023/01/10 08:55:30;;;;;;;0.30;0.10;;;12.40;27.50;;;;;;6152698;23;20398;-77
2023/01/10 08:58:00;;;;;;;1.23;0.10;;;12.50;27.20;;;;;;6150432;23;20454;-77
2023/01/10 09:00:28;;;;;;;0.68;0.10;;;12.50;26.90;;;;;;6152633;23;20715;-76
2023/01/10 09:02:55;;;;;;;0.85;0.20;;;12.50;27.20;;;;;;6150096;23;22519;-77
2023/01/10 09:05:22;;;;;;;1.60;0.32;;;12.50;27.40;;;;;;6151303;23;20373;-77
2023/01/10 09:07:58;;;;;;;1.60;0.13;;;12.50;27.70;;;;;;6150358;23;20454;-76
2023/01/10 09:10:26;;;;;;;0.10;0.10;;;12.50;27.30;;;;;;6151510;23;20385;-77
2023/01/10 09:12:53;;;;;;;0.10;0.10;;;12.60;26.90;;;;;;6149970;23;20382;-76
2023/01/10 09:15:22;;;;;;;0.30;0.10;;;12.60;26.60;;;;;;6152705;23;20400;-76
2023/01/10 09:17:51;;;;;;;1.30;0.20;;;12.70;27.30;;;;;;6150466;23;20374;-77
2023/01/10 09:20:18;;;;;;;1.30;0.30;;;12.60;26.80;;;;;;6150618;23;20457;-77
2023/01/10 09:22:45;;;;;;;0.45;0.10;;;12.60;27.20;;;;;;6150286;23;20858;-77
2023/01/10 09:25:12;;;;;;;0.50;0.10;;;12.60;25.90;;;;;;6150953;23;20405;-77
2023/01/10 09:27:39;;;;;;;0.20;0.10;;;12.70;26.30;;;;;;6150270;23;20429;-77
2023/01/10 09:30:06;;;;;;;0.50;0.10;;;12.70;26.40;;;;;;6152311;23;20466;-77
2023/01/10 09:32:33;;;;;;;0.10;0.10;;;12.70;27.00;;;;;;6151069;23;20382;-76
2023/01/10 09:35:00;;;;;;;0.25;0.10;;;12.80;26.40;;;;;;6149816;23;20401;-76
2023/01/10 09:37:27;;;;;;;2.63;0.17;;;12.70;26.60;;;;;;6150708;23;20494;-77
2023/01/10 09:39:54;;;;;;;0.10;0.10;;;12.80;26.30;;;;;;6151166;23;20385;-76
2023/01/10 09:42:56;;;;;;;0.60;0.20;;;12.80;25.70;;;;;;6151886;23;20381;-77
2023/01/10 09:45:38;;;;;;;2.00;0.20;;;12.80;26.60;;;;;;6151057;23;20445;-78
2023/01/10 09:48:09;;;;;;;0.70;0.30;;;12.90;26.20;;;;;;6149510;23;20398;-76
2023/01/10 09:50:58;;;;;;;1.23;0.20;;;13.00;25.40;;;;;;6150090;23;20702;-77
2023/01/10 09:53:30;;;;;;;0.30;0.10;;;13.00;25.00;;;;;;6150152;23;20440;-77
2023/01/10 09:55:59;;;;;;;0.50;0.10;;;13.10;25.30;;;;;;6150266;23;20386;-76
2023/01/10 09:58:29;;;;;;;0.80;0.20;;;13.10;25.10;;;;;;6173770;23;20377;-76
2023/01/10 10:01:05;;;;;;;0.50;0.30;;;13.10;24.80;;;;;;6151969;23;20378;-77
2023/01/10 10:03:47;;;;;;;1.10;0.30;;;13.10;24.60;;;;;;6149474;23;20405;-76
2023/01/10 10:06:14;;;;;;;1.08;0.20;;;13.10;24.50;;;;;;6151143;23;20378;-76
2023/01/10 10:08:44;;;;;;;1.10;0.20;;;13.20;24.80;;;;;;6151872;23;20386;-76
2023/01/10 10:11:26;;;;;;;0.20;0.20;;;13.20;24.80;;;;;;6149534;23;20389;-77
2023/01/10 10:14:30;;;;;;;1.70;0.10;;;13.30;23.80;;;;;;6150344;23;20398;-77
2023/01/10 10:17:26;;;;;;;0.50;0.20;;;13.30;24.40;;;;;;6151078;23;20398;-76
2023/01/10 10:20:20;;;;;;;0.32;0.20;;;13.40;25.00;;;;;;6144904;23;20449;-76
2023/01/10 10:23:18;;;;;;;0.10;0.10;;;13.40;23.80;;;;;;6148737;23;20378;-79
2023/01/10 10:25:57;;;;;;;0.30;0.10;;;13.40;24.30;;;;;;6149114;23;20382;-75
2023/01/10 10:28:51;;;;;;;0.50;0.10;;;13.40;25.30;;;;;;6150562;23;20458;-76
2023/01/10 10:31:31;;;;;;;0.60;0.10;;;13.50;24.60;;;;;;6149876;23;20378;-76
2023/01/10 10:34:00;;;;;;;0.10;0.10;;;13.50;24.40;;;;;;6149226;23;20448;-76
2023/01/10 10:36:39;;;;;;;0.20;0.10;;;13.60;24.00;;;;;;6150448;23;20838;-76
2023/01/10 10:39:13;;;;;;;0.20;0.20;;;13.60;24.00;;;;;;6150945;23;20390;-77
2023/01/10 10:41:43;;;;;;;0.10;0.10;;;13.60;23.60;;;;;;6150084;23;20428;-76
2023/01/10 10:44:38;;;;;;;0.10;0.10;;;13.60;23.80;;;;;;6148990;23;20432;-76
2023/01/10 10:47:18;;;;;;;0.10;0.10;;;13.70;23.20;;;;;;6150175;23;20384;-77
2023/01/10 10:49:44;;;;;;;0.10;0.10;;;13.80;23.70;;;;;;6150225;23;20763;-76
2023/01/10 10:52:24;;;;;;;0.10;0.10;;;13.80;24.70;;;;;;6148028;23;20374;-76
2023/01/10 10:54:52;;;;;;;0.10;0.10;;;13.80;23.00;;;;;;6151696;23;20448;-77
2023/01/10 10:57:24;;;;;;;0.10;0.10;;;13.90;24.00;;;;;;6150919;23;20358;-76
2023/01/10 10:59:51;;;;;;;0.10;0.10;;;14.00;24.20;;;;;;6149424;23;20442;-77
2023/01/10 11:02:40;;;;;;;0.10;0.10;;;14.00;23.70;;;;;;6149080;23;20778;-76
2023/01/10 11:05:16;;;;;;;0.10;0.10;;;14.10;24.10;;;;;;6148938;23;20428;-76
2023/01/10 11:07:43;;;;;;;0.20;0.10;;;14.10;24.90;;;;;;6150050;23;20386;-76
2023/01/10 11:10:34;;;;;;;0.10;0.10;;;14.20;23.70;;;;;;6151438;23;20374;-76
2023/01/10 11:13:21;;;;;;;0.10;0.10;;;14.20;23.30;;;;;;6152331;23;20387;-76
2023/01/10 11:15:49;;;;;;;0.13;0.10;;;14.20;24.00;;;;;;6152109;23;20716;-77
2023/01/10 11:18:19;;;;;;;0.40;0.10;;;14.30;23.40;;;;;;6151081;23;20377;-76
2023/01/10 11:20:49;;;;;;;0.40;0.10;;;14.30;23.90;;;;;;6152115;23;20438;-77
2023/01/10 11:23:36;;;;;;;0.10;0.10;;;14.30;23.00;;;;;;6151105;23;20382;-76
2023/01/10 11:26:06;;;;;;;0.10;0.10;;;14.30;23.60;;;;;;6150595;23;20432;-77
2023/01/10 11:28:33;;;;;;;0.10;0.10;;;14.40;23.60;;;;;;6152135;23;20385;-77
2023/01/10 11:31:02;;;;;;;0.80;0.10;;;14.40;24.20;;;;;;6150972;23;20834;-77
2023/01/10 11:33:34;;;;;;;0.10;0.10;;;14.40;24.20;;;;;;6151511;23;20432;-76
2023/01/10 11:36:06;;;;;;;0.10;0.10;;;14.40;23.50;;;;;;6150408;23;20714;-77
2023/01/10 11:38:34;;;;;;;0.10;0.10;;;14.50;23.60;;;;;;6151729;23;20381;-76
2023/01/10 11:41:21;;;;;;;0.10;0.10;;;14.50;22.80;;;;;;6150763;23;20378;-77
2023/01/10 11:43:48;;;;;;;0.10;0.10;;;14.70;22.90;;;;;;6152032;23;20374;-76
2023/01/10 11:46:21;;;;;;;0.10;0.10;;;14.70;22.50;;;;;;6152385;23;20574;-76
2023/01/10 11:49:13;;;;;;;0.20;0.10;;;14.80;22.60;;;;;;6151602;23;20378;-76
2023/01/10 11:51:47;;;;;;;0.30;0.10;;;14.90;22.60;;;;;;6150765;23;20374;-76
2023/01/10 11:54:24;;;;;;;0.10;0.10;;;14.90;23.10;;;;;;6152081;23;20469;-76
2023/01/10 11:57:07;;;;;;;0.10;0.10;;;15.00;23.00;;;;;;6148775;23;20420;-76
2023/01/10 11:59:34;;;;;;;0.10;0.10;;;15.10;22.60;;;;;;6149229;23;20784;-76
2023/01/10 12:02:23;;;;;;;0.10;0.10;;;15.10;22.30;;;;;;6153153;23;20805;-76
2023/01/10 12:04:52;;;;;;;0.10;0.10;;;15.10;23.20;;;;;;6135753;23;20370;-76
2023/01/10 12:07:19;;;;;;;0.10;0.10;;;15.20;22.70;;;;;;6150013;23;20921;-76
2023/01/10 12:10:18;;;;;;;0.10;0.10;;;15.20;22.10;;;;;;6150775;23;20440;-78
2023/01/10 12:12:56;;;;;;;0.10;0.10;;;15.30;22.00;;;;;;6150872;23;20386;-77
2023/01/10 12:15:32;;;;;;;0.10;0.10;;;15.30;23.00;;;;;;6151251;23;20436;-76
2023/01/10 12:18:02;;;;;;;0.10;0.10;;;15.40;24.20;;;;;;6174978;23;20370;-76
2023/01/10 12:20:32;;;;;;;0.10;0.10;;;15.60;22.50;;;;;;6150588;23;20378;-77
2023/01/10 12:23:16;;;;;;;0.10;0.10;;;15.60;23.20;;;;;;6150202;23;20370;-76
2023/01/10 12:25:44;;;;;;;0.10;0.10;;;15.70;22.20;;;;;;6151309;23;20401;-76
2023/01/10 12:28:26;;;;;;;0.30;0.10;;;15.70;22.20;;;;;;6150822;23;20405;-76
2023/01/10 12:30:55;;;;;;;2.50;0.10;;;15.70;21.50;;;;;;6149135;23;20381;-77
2023/01/10 12:33:29;;;;;;;0.10;0.10;;;15.70;23.40;;;;;;6149973;23;20464;-76
2023/01/10 12:36:00;;;;;;;0.10;0.10;;;15.70;23.00;;;;;;6151480;23;20490;-77
2023/01/10 12:39:07;;;;;;;0.10;0.10;;;15.80;23.30;;;;;;6150465;23;20405;-77
2023/01/10 12:44:57;;;;;;;0.10;0.10;;;15.90;22.80;;;;;;6151095;23;20390;-79
2023/01/10 12:47:48;;;;;;;0.10;0.10;;;16.00;22.70;;;;;;6151895;23;20374;-76
2023/01/10 12:50:24;;;;;;;0.10;0.10;;;16.10;22.30;;;;;;6152839;23;20441;-76
2023/01/10 12:53:01;;;;;;;0.10;0.10;;;16.10;22.80;;;;;;6149250;23;20400;-77
2023/01/10 12:55:33;;;;;;;0.10;0.10;;;16.20;21.90;;;;;;6150174;23;20374;-77
2023/01/10 12:58:03;;;;;;;0.10;0.10;;;16.20;22.60;;;;;;6151152;23;20382;-76
2023/01/10 13:00:38;;;;;;;0.10;0.10;;;16.20;22.50;;;;;;6151960;23;20449;-77
2023/01/10 13:03:23;;;;;;;0.10;0.10;;;16.20;22.00;;;;;;6150918;23;20374;-76
2023/01/10 13:05:51;;;;;;;0.10;0.10;;;16.20;23.20;;;;;;6151706;23;20374;-77
2023/01/10 13:08:23;;;;;;;0.10;0.10;;;16.20;22.10;;;;;;6151010;23;20378;-76
2023/01/10 13:10:55;;;;;;;0.10;0.10;;;16.20;23.30;;;;;;6151665;23;20377;-77
2023/01/10 13:13:40;;;;;;;0.80;0.10;;;16.30;22.50;;;;;;6152883;23;20437;-78
2023/01/10 13:16:38;;;;;;;0.10;0.10;;;16.10;23.00;;;;;;6150749;23;20362;-76
2023/01/10 13:19:26;;;;;;;0.10;0.10;;;16.10;23.40;;;;;;6151788;23;20970;-77
2023/01/10 13:22:19;;;;;;;0.10;0.10;;;16.20;24.10;;;;;;6150122;23;20743;-77
2023/01/10 13:24:57;;;;;;;0.10;0.10;;;16.30;23.90;;;;;;6149849;23;20534;-78
2023/01/10 13:27:30;;;;;;;0.20;0.20;;;16.30;24.00;;;;;;6152462;23;20753;-76
2023/01/10 13:29:57;;;;;;;0.10;0.10;;;16.10;23.50;;;;;;6151133;23;20405;-76
2023/01/10 13:32:32;;;;;;;0.10;0.10;;;16.10;23.40;;;;;;6150479;23;20386;-77
2023/01/10 13:35:17;;;;;;;0.10;0.10;;;16.10;24.20;;;;;;6151318;23;20380;-76
2023/01/10 13:37:52;;;;;;;0.20;0.20;;;16.20;24.10;;;;;;6150707;23;20433;-76
2023/01/10 13:40:29;;;;;;;0.20;0.20;;;16.10;25.00;;;;;;6151888;23;20382;-77
2023/01/10 13:43:35;;;;;;;0.10;0.10;;;15.80;25.20;;;;;;6149654;23;20413;-77
2023/01/10 13:46:17;;;;;;;0.60;0.20;;;15.20;27.30;;;;;;6145477;23;20385;-76
2023/01/10 13:48:55;;;;;;;0.10;0.10;;;14.90;28.50;;;;;;6150962;23;20382;-78
2023/01/10 13:51:22;;;;;;;0.20;0.10;;;14.80;29.50;;;;;;6150382;23;20755;-79
2023/01/10 13:53:52;;;;;;;0.10;0.10;;;14.40;30.20;;;;;;6150695;23;20382;-78
2023/01/10 13:56:38;;;;;;;0.35;0.20;;;14.20;30.70;;;;;;6149818;23;20393;-77
2023/01/10 14:02:27;;;;;;;0.10;0.10;;;13.90;31.60;;;;;;6150359;23;20393;-78
2023/01/10 14:05:02;;;;;;;0.10;0.10;;;13.80;31.70;;;;;;6150647;23;20378;-78
2023/01/10 14:07:48;;;;;;;0.10;0.10;;;13.80;32.10;;;;;;6150168;23;20370;-78
2023/01/10 14:10:22;;;;;;;0.10;0.10;;;13.80;31.90;;;;;;6149844;23;20378;-78
2023/01/10 14:12:52;;;;;;;0.10;0.10;;;13.80;33.00;;;;;;6150145;23;20826;-78
2023/01/10 14:15:35;;;;;;;0.10;0.10;;;13.90;31.50;;;;;;6151565;23;20384;-78
2023/01/10 14:18:15;;;;;;;0.17;0.10;;;13.90;31.60;;;;;;6150389;23;20760;-75
2023/01/10 14:20:43;;;;;;;0.68;0.10;;;14.10;31.90;;;;;;6150197;23;20731;-78
2023/01/10 14:23:21;;;;;;;0.10;0.10;;;14.30;31.30;;;;;;6148210;23;20378;-79
2023/01/10 14:25:54;;;;;;;0.13;0.13;;;14.30;31.40;;;;;;6148188;23;20374;-79
2023/01/10 14:28:30;;;;;;;0.17;0.10;;;14.40;32.00;;;;;;6149562;23;20386;-79
2023/01/10 14:31:03;;;;;;;0.10;0.10;;;14.30;31.10;;;;;;6149007;23;20433;-78
2023/01/10 14:33:31;;;;;;;0.10;0.10;;;14.30;31.00;;;;;;6151220;23;20392;-76
2023/01/10 14:36:03;;;;;;;0.10;0.10;;;14.20;31.10;;;;;;6148671;23;20834;-76
2023/01/10 14:38:33;;;;;;;0.10;0.10;;;14.20;31.40;;;;;;6150200;23;20370;-75
2023/01/10 14:41:05;;;;;;;0.45;0.20;;;14.40;31.40;;;;;;6149131;23;20410;-75
2023/01/10 14:43:48;;;;;;;0.10;0.10;;;14.30;30.30;;;;;;6149305;23;20374;-76
2023/01/10 14:46:19;;;;;;;0.85;0.20;;;14.00;30.00;;;;;;6149160;23;20454;-76
2023/01/10 14:48:52;;;;;;;0.30;0.10;;;14.00;30.30;;;;;;6148506;23;20392;-77
2023/01/10 14:51:21;;;;;;;0.20;0.20;;;13.90;30.00;;;;;;6149125;23;20402;-76
2023/01/10 14:54:12;;;;;;;0.10;0.10;;;14.00;29.80;;;;;;6150357;23;20392;-76
2023/01/10 14:56:45;;;;;;;0.10;0.10;;;14.20;30.00;;;;;;6144233;23;20381;-76
2023/01/10 14:59:36;;;;;;;0.10;0.10;;;14.30;29.30;;;;;;6149546;23;20776;-79
2023/01/10 15:02:22;;;;;;;0.10;0.10;;;14.40;29.60;;;;;;6146306;23;20854;-78
2023/01/10 15:05:20;;;;;;;0.10;0.10;;;14.60;29.50;;;;;;6147009;23;20377;-78
2023/01/10 15:07:47;;;;;;;0.10;0.10;;;14.60;29.00;;;;;;6147342;23;20406;-76
2023/01/10 15:10:21;;;;;;;0.10;0.10;;;14.60;29.40;;;;;;6148219;23;20423;-78
2023/01/10 15:12:53;;;;;;;0.10;0.10;;;14.60;29.70;;;;;;6145461;23;20912;-79
2023/01/10 15:15:31;;;;;;;0.10;0.10;;;14.60;29.70;;;;;;6144326;23;20715;-79
2023/01/10 15:18:01;;;;;;;0.10;0.10;;;14.60;29.60;;;;;;6148062;23;20388;-79
2023/01/10 15:20:28;;;;;;;0.08;0.08;;;14.60;30.00;;;;;;6150711;23;20402;-79
2023/01/10 15:23:00;;;;;;;0.10;0.10;;;14.60;30.30;;;;;;6148123;23;20842;-78
2023/01/10 15:25:55;;;;;;;0.10;0.10;;;14.70;30.20;;;;;;6149307;23;20384;-79
2023/01/10 15:28:22;;;;;;;0.10;0.10;;;14.70;31.30;;;;;;6147985;23;20374;-78
2023/01/10 15:30:49;;;;;;;0.17;0.10;;;14.70;31.10;;;;;;6148908;23;20382;-79
2023/01/10 15:33:28;;;;;;;0.10;0.10;;;14.70;31.00;;;;;;6150427;23;20381;-76
2023/01/10 15:36:12;;;;;;;0.10;0.10;;;14.70;30.90;;;;;;6149803;23;20461;-79
2023/01/10 15:38:43;;;;;;;0.28;0.28;;;14.60;31.30;;;;;;6149435;23;20370;-79
2023/01/10 15:41:17;;;;;;;0.30;0.30;;;14.40;32.10;;;;;;6151389;23;20867;-78
2023/01/10 15:43:45;;;;;;;0.35;0.35;;;14.10;33.50;;;;;;6150857;23;20393;-76
2023/01/10 15:46:21;;;;;;;0.40;0.40;;;13.70;33.70;;;;;;6150324;23;20715;-76
2023/01/10 15:49:01;;;;;;;0.90;0.50;;;13.50;33.60;;;;;;6173556;23;20453;-78
2023/01/10 15:51:33;;;;;;;0.47;0.47;;;13.20;31.90;;;;;;6148825;23;20470;-76
2023/01/10 15:54:23;;;;;;;0.55;0.50;;;13.10;32.60;;;;;;6150329;23;20444;-76
2023/01/10 15:57:06;;;;;;;0.50;0.50;;;12.80;32.20;;;;;;6145382;23;20818;-78
2023/01/10 15:59:39;;;;;;;0.45;0.45;;;12.60;33.10;;;;;;6152118;23;20378;-76
2023/01/10 16:02:30;;;;;;;0.70;0.40;;;12.50;33.60;;;;;;6151582;23;20722;-76
2023/01/10 16:05:09;;;;;;;0.50;0.40;;;12.30;33.70;;;;;;6151225;23;20390;-76
2023/01/10 16:07:42;;;;;;;0.50;0.50;;;12.00;35.60;;;;;;6151157;23;20374;-76
2023/01/10 16:10:26;;;;;;;0.70;0.50;;;11.70;36.80;;;;;;6151706;23;20374;-76
2023/01/10 16:13:26;;;;;;;0.60;0.60;;;11.40;37.60;;;;;;6150510;23;20384;-76
2023/01/10 16:15:55;;;;;;;0.70;0.50;;;11.20;38.30;;;;;;6152325;23;20393;-76
2023/01/10 16:18:23;;;;;;;0.88;0.52;;;11.00;38.80;;;;;;6151295;23;20370;-76
2023/01/10 16:20:52;;;;;;;0.57;0.50;;;10.90;37.20;;;;;;6150699;23;20458;-77
2023/01/10 16:23:42;;;;;;;0.80;0.68;;;10.70;37.50;;;;;;6141652;23;20378;-76
2023/01/10 16:26:09;;;;;;;0.80;0.70;;;10.50;38.30;;;;;;6149608;23;20374;-76
2023/01/10 16:28:36;;;;;;;1.30;0.90;;;10.40;38.80;;;;;;6150328;23;20754;-77
2023/01/10 16:31:05;;;;;;;1.27;0.90;;;10.20;38.70;;;;;;6150198;23;20377;-76
2023/01/10 16:33:33;;;;;;;1.93;1.20;;;10.00;39.50;;;;;;6151530;23;20430;-76
2023/01/10 16:36:00;;;;;;;1.20;1.10;;;9.80;40.10;;;;;;6151509;23;20374;-76
2023/01/10 16:38:27;;;;;;;1.10;0.90;;;9.70;39.90;;;;;;6150952;23;20385;-76
2023/01/10 16:43:16;;;;;;;0.75;0.75;;;9.60;38.80;;;;;;6150080;23;20389;-76
2023/01/10 16:43:50;;;;;;;0.70;0.70;;;9.60;38.10;;;;;;6151994;23;20382;-80
2023/01/10 16:46:17;;;;;;;0.70;0.70;;;9.50;38.10;;;;;;6153209;23;20751;-76
2023/01/10 16:48:46;;;;;;;0.63;0.63;;;9.40;38.60;;;;;;6150753;23;20482;-76
2023/01/10 16:51:17;;;;;;;0.60;0.60;;;9.40;38.10;;;;;;6151689;23;20370;-76
2023/01/10 16:53:45;;;;;;;0.80;0.80;;;9.30;38.00;;;;;;6150220;23;20493;-76
2023/01/10 16:56:14;;;;;;;0.80;0.80;;;9.30;38.80;;;;;;6151320;23;20377;-76
2023/01/10 16:58:41;;;;;;;1.20;1.10;;;9.20;39.00;;;;;;6149419;23;20370;-76
2023/01/10 17:01:15;;;;;;;1.33;1.23;;;9.10;39.30;;;;;;6148575;23;20417;-77
2023/01/10 17:03:42;;;;;;;1.00;1.00;;;9.00;39.90;;;;;;6147823;23;20374;-76
2023/01/10 17:06:14;;;;;;;0.80;0.80;;;8.90;39.60;;;;;;6148456;23;20374;-76
2023/01/10 17:08:41;;;;;;;0.93;0.93;;;8.90;39.70;;;;;;6151860;23;20861;-76
2023/01/10 17:11:43;;;;;;;0.70;0.70;;;8.80;39.40;;;;;;6149709;23;20837;-76
2023/01/10 17:14:13;;;;;;;0.63;0.63;;;8.80;39.30;;;;;;6148155;23;20754;-76
2023/01/10 17:16:40;;;;;;;0.70;0.70;;;8.80;39.50;;;;;;6174552;23;20433;-76
2023/01/10 17:19:07;;;;;;;0.70;0.70;;;8.70;39.60;;;;;;6149151;23;20444;-77
2023/01/10 17:21:34;;;;;;;0.60;0.60;;;8.70;39.80;;;;;;6150384;23;20385;-76
2023/01/10 17:24:01;;;;;;;0.50;0.50;;;8.60;39.60;;;;;;6150299;23;20385;-76
2023/01/10 17:26:28;;;;;;;0.60;0.50;;;8.60;39.70;;;;;;6151201;23;20433;-76
2023/01/10 17:28:55;;;;;;;0.47;0.47;;;8.60;39.40;;;;;;6151270;23;20409;-75
2023/01/10 17:31:22;;;;;;;0.40;0.40;;;8.50;38.60;;;;;;6150812;23;20370;-79
2023/01/10 17:33:49;;;;;;;0.70;0.40;;;8.50;38.60;;;;;;6150644;23;20370;-79
2023/01/10 17:36:16;;;;;;;0.50;0.50;;;8.50;39.00;;;;;;6149823;23;20374;-79
2023/01/10 17:38:45;;;;;;;0.40;0.40;;;8.40;39.90;;;;;;6150058;23;20767;-75
2023/01/10 17:41:12;;;;;;;0.60;0.60;;;8.40;40.80;;;;;;6148128;23;20780;-76
2023/01/10 17:43:39;;;;;;;0.63;0.63;;;8.30;41.00;;;;;;6150196;23;20370;-76
2023/01/10 17:46:06;;;;;;;0.55;0.55;;;8.20;39.80;;;;;;6149614;23;20374;-76
2023/01/10 17:48:34;;;;;;;0.70;0.70;;;8.20;39.40;;;;;;6151710;23;20377;-76
2023/01/10 17:51:02;;;;;;;0.60;0.60;;;8.10;39.40;;;;;;6149249;23;20378;-75
2023/01/10 17:53:29;;;;;;;0.70;0.70;;;8.10;39.60;;;;;;6150056;23;20420;-76